Time;durP1;ratioP1;P1;durP2;ratioP2;P2;SDS_P1;SDS_P2;PMS_P1;PMS_P2;Temp;Humidity;BMP_temperature;BMP_pressure;BME280_temperature;BME280_humidity;BME280_pressure;Samples;Min_cycle;Max_cycle;Signal;HPM_P1;HPM_P2
2021/11/27 00:01:37;;;;;;;7.82;3.10;;;9.90;99.90;;;;;;4995093;28;20042;-78
2021/11/27 00:04:03;;;;;;;3.47;2.83;;;9.90;99.90;;;;;;4992023;28;20042;-78
2021/11/27 00:06:29;;;;;;;3.42;2.75;;;9.90;99.90;;;;;;4975202;28;20042;-78
2021/11/27 00:08:56;;;;;;;4.07;3.00;;;9.90;99.90;;;;;;4984908;28;20034;-78
2021/11/27 00:11:23;;;;;;;3.83;3.40;;;9.90;99.90;;;;;;4995287;28;20384;-78
2021/11/27 00:13:49;;;;;;;4.30;3.22;;;10.00;99.90;;;;;;4994733;28;20050;-78
2021/11/27 00:16:15;;;;;;;7.47;3.42;;;10.00;99.90;;;;;;4995140;28;20035;-78
2021/11/27 00:18:41;;;;;;;6.43;4.05;;;9.90;99.90;;;;;;4994902;28;20027;-78
2021/11/27 00:21:11;;;;;;;7.25;3.45;;;9.90;99.90;;;;;;4995045;28;20372;-78
2021/11/27 00:23:38;;;;;;;4.85;3.78;;;9.80;99.90;;;;;;4994608;28;20113;-78
2021/11/27 00:26:09;;;;;;;7.95;4.95;;;9.80;99.90;;;;;;4994730;28;20117;-79
2021/11/27 00:28:36;;;;;;;5.07;4.15;;;9.80;99.90;;;;;;4994448;28;20061;-79
2021/11/27 00:31:16;;;;;;;3.75;3.30;;;9.70;99.90;;;;;;4994407;28;20038;-77
2021/11/27 00:33:42;;;;;;;6.95;3.47;;;9.70;99.90;;;;;;4994438;28;20041;-78
2021/11/27 00:36:08;;;;;;;4.10;2.88;;;9.80;99.90;;;;;;4994147;28;20105;-78
2021/11/27 00:38:34;;;;;;;3.08;2.70;;;9.80;99.90;;;;;;4994137;28;20479;-78
2021/11/27 00:41:00;;;;;;;3.55;2.92;;;9.90;99.90;;;;;;4976590;28;20038;-77
2021/11/27 00:43:26;;;;;;;4.10;2.50;;;10.00;99.90;;;;;;4976491;28;20387;-78
2021/11/27 00:45:53;;;;;;;6.07;3.45;;;10.00;99.90;;;;;;4993705;28;20034;-78
2021/11/27 00:48:19;;;;;;;8.30;3.53;;;10.00;99.90;;;;;;4994513;28;20487;-78
2021/11/27 00:50:50;;;;;;;5.70;3.35;;;10.10;99.90;;;;;;4994406;28;20174;-79
2021/11/27 00:53:16;;;;;;;3.78;3.28;;;10.10;99.90;;;;;;4994383;28;20487;-80
2021/11/27 00:55:42;;;;;;;7.18;3.90;;;10.10;99.90;;;;;;4994054;28;20038;-78
2021/11/27 00:58:09;;;;;;;7.22;4.18;;;10.10;99.90;;;;;;4976449;28;20042;-78
2021/11/27 01:00:42;;;;;;;10.18;4.07;;;10.00;99.90;;;;;;4993985;28;20035;-78
2021/11/27 01:03:11;;;;;;;4.90;3.53;;;10.10;99.90;;;;;;4976814;28;20398;-78
2021/11/27 01:05:37;;;;;;;5.10;3.65;;;10.00;99.90;;;;;;4994181;28;20019;-79
2021/11/27 01:08:04;;;;;;;6.15;3.60;;;10.10;99.90;;;;;;4977588;28;20054;-78
2021/11/27 01:10:33;;;;;;;5.57;4.13;;;10.10;99.90;;;;;;4993860;28;20030;-79
2021/11/27 01:12:59;;;;;;;3.55;3.10;;;10.10;99.90;;;;;;4992175;28;20045;-78
2021/11/27 01:15:31;;;;;;;7.10;3.40;;;10.10;99.90;;;;;;4992425;28;20034;-79
2021/11/27 01:17:59;;;;;;;3.30;2.97;;;10.10;99.90;;;;;;4976258;28;20427;-78
2021/11/27 01:20:31;;;;;;;6.35;3.25;;;10.10;99.90;;;;;;4993856;28;20045;-78
2021/11/27 01:22:57;;;;;;;;;;;10.10;99.90;;;;;;4994093;28;20046;-79
2021/11/27 01:25:24;;;;;;;3.33;3.03;;;10.10;99.90;;;;;;4993788;28;20008;-79
2021/11/27 01:27:50;;;;;;;3.88;2.28;;;10.10;99.90;;;;;;4993584;28;20031;-77
2021/11/27 01:30:18;;;;;;;3.22;2.00;;;10.20;99.90;;;;;;4993593;28;20391;-79
2021/11/27 01:32:45;;;;;;;2.58;2.08;;;10.20;99.90;;;;;;4975080;28;20049;-79
2021/11/27 01:35:12;;;;;;;2.88;2.00;;;10.10;99.90;;;;;;4993031;28;20033;-79
2021/11/27 01:37:39;;;;;;;2.95;2.22;;;10.10;99.90;;;;;;4993218;28;20050;-79
2021/11/27 01:40:08;;;;;;;2.42;2.22;;;10.10;99.90;;;;;;4976012;28;20173;-79
2021/11/27 01:42:34;;;;;;;4.63;2.35;;;10.20;99.90;;;;;;4993363;28;20030;-79
2021/11/27 01:45:00;;;;;;;2.90;1.95;;;10.10;99.90;;;;;;4993384;28;20041;-79
2021/11/27 01:47:27;;;;;;;3.05;2.40;;;10.20;99.90;;;;;;4993187;28;20042;-79
2021/11/27 01:49:52;;;;;;;3.75;1.88;;;10.10;99.90;;;;;;4975693;28;20034;-79
2021/11/27 01:52:18;;;;;;;2.40;2.05;;;10.20;99.90;;;;;;4975757;28;20042;-79
2021/11/27 01:54:44;;;;;;;11.00;2.05;;;10.20;99.90;;;;;;4993151;28;20062;-79
2021/11/27 01:57:10;;;;;;;2.30;2.10;;;10.20;99.90;;;;;;4993226;28;20034;-79
2021/11/27 01:59:39;;;;;;;2.45;2.13;;;10.20;99.90;;;;;;4975767;28;20114;-79
2021/11/27 02:02:23;;;;;;;5.55;1.65;;;10.20;99.90;;;;;;4993054;28;20029;-79
2021/11/27 02:04:50;;;;;;;9.65;1.90;;;10.20;99.90;;;;;;4993045;28;20031;-79
2021/11/27 02:07:16;;;;;;;5.85;1.70;;;10.10;99.90;;;;;;4992811;28;20108;-79
2021/11/27 02:09:43;;;;;;;3.42;1.77;;;10.10;99.90;;;;;;4992856;28;20026;-78
2021/11/27 02:12:11;;;;;;;1.63;1.40;;;10.20;99.90;;;;;;4993399;28;20438;-79
2021/11/27 02:14:38;;;;;;;4.57;1.50;;;10.20;99.90;;;;;;4993247;28;20093;-78
2021/11/27 02:17:05;;;;;;;1.35;1.23;;;10.30;99.90;;;;;;4992978;28;20038;-78
2021/11/27 02:19:31;;;;;;;4.05;1.40;;;10.30;99.90;;;;;;4975446;28;20125;-79
2021/11/27 02:21:58;;;;;;;2.75;1.85;;;10.30;99.90;;;;;;4993119;28;20052;-79
2021/11/27 02:24:24;;;;;;;3.63;2.05;;;10.30;99.90;;;;;;4992969;28;20035;-79
2021/11/27 02:26:50;;;;;;;7.30;1.80;;;10.30;99.90;;;;;;4994811;28;20426;-78
2021/11/27 02:29:23;;;;;;;6.03;1.90;;;10.30;99.90;;;;;;4979664;28;20042;-79
2021/11/27 02:31:49;;;;;;;13.75;2.10;;;10.30;99.90;;;;;;4979356;28;20088;-79
2021/11/27 02:34:15;;;;;;;3.90;1.77;;;10.30;99.90;;;;;;4996859;28;20039;-79
2021/11/27 02:36:48;;;;;;;5.18;1.95;;;10.30;99.90;;;;;;4996958;28;20057;-79
2021/11/27 02:39:15;;;;;;;2.45;1.77;;;10.20;99.90;;;;;;4996592;28;20031;-78
2021/11/27 02:42:00;;;;;;;4.40;1.73;;;10.20;99.90;;;;;;4979363;28;20038;-79
2021/11/27 02:44:29;;;;;;;5.38;2.63;;;10.10;99.90;;;;;;4996643;28;20038;-78
2021/11/27 02:46:56;;;;;;;5.47;3.20;;;10.10;99.90;;;;;;4979133;28;20042;-79
2021/11/27 02:49:22;;;;;;;2.42;2.00;;;10.10;99.90;;;;;;4996803;28;20166;-78
2021/11/27 02:51:49;;;;;;;3.05;2.30;;;10.10;99.90;;;;;;4996623;28;20065;-78
2021/11/27 02:54:15;;;;;;;3.20;2.20;;;10.20;99.90;;;;;;4996153;28;20109;-78
2021/11/27 02:56:41;;;;;;;6.78;2.47;;;10.20;99.90;;;;;;4996251;28;20026;-77
2021/11/27 02:59:13;;;;;;;5.47;2.28;;;10.20;99.90;;;;;;4996434;28;20112;-78
2021/11/27 03:01:39;;;;;;;5.70;2.38;;;10.20;99.90;;;;;;4978963;28;20387;-78
2021/11/27 03:04:05;;;;;;;6.30;2.83;;;10.30;99.90;;;;;;4996490;28;20486;-78
2021/11/27 03:06:33;;;;;;;9.23;2.65;;;10.40;99.90;;;;;;4995852;28;20066;-77
2021/11/27 03:09:04;;;;;;;3.80;2.58;;;10.50;99.90;;;;;;4995651;28;20450;-78
2021/11/27 03:11:30;;;;;;;5.20;2.45;;;10.60;99.90;;;;;;4995996;28;20411;-78
2021/11/27 03:13:56;;;;;;;4.13;2.60;;;10.70;99.90;;;;;;4978397;28;20038;-79
2021/11/27 03:16:29;;;;;;;8.35;2.42;;;10.70;99.90;;;;;;4995989;28;20386;-78
2021/11/27 03:18:56;;;;;;;11.05;2.72;;;10.80;99.90;;;;;;4996382;28;20084;-78
2021/11/27 03:21:22;;;;;;;9.20;2.47;;;10.90;99.90;;;;;;4978567;28;20041;-78
2021/11/27 03:23:49;;;;;;;3.67;2.17;;;10.90;99.90;;;;;;4996087;28;20117;-77
2021/11/27 03:26:15;;;;;;;10.45;3.03;;;10.90;99.90;;;;;;4978569;28;20061;-78
2021/11/27 03:28:43;;;;;;;8.80;3.58;;;10.90;99.90;;;;;;4995248;28;20053;-77
2021/11/27 03:31:08;;;;;;;11.02;3.70;;;10.90;99.90;;;;;;4995953;28;20031;-78
2021/11/27 03:33:34;;;;;;;8.60;3.20;;;10.90;99.90;;;;;;4995701;28;20042;-78
2021/11/27 03:36:00;;;;;;;9.90;3.72;;;11.00;99.90;;;;;;4978201;28;20038;-77
2021/11/27 03:38:26;;;;;;;7.85;3.40;;;10.90;99.90;;;;;;4994809;28;20394;-78
2021/11/27 03:40:52;;;;;;;8.88;3.50;;;11.00;99.90;;;;;;4995534;28;20073;-78
2021/11/27 03:43:18;;;;;;;13.35;2.78;;;11.00;99.90;;;;;;4995323;28;20034;-78
2021/11/27 03:45:44;;;;;;;7.13;3.42;;;11.00;99.90;;;;;;4995541;28;20041;-77
2021/11/27 03:48:12;;;;;;;9.20;3.30;;;11.00;99.90;;;;;;4995428;28;20038;-77
2021/11/27 03:50:43;;;;;;;8.63;3.22;;;11.00;99.90;;;;;;4995296;28;20042;-78
2021/11/27 03:53:11;;;;;;;14.50;3.17;;;11.00;99.90;;;;;;4995772;28;20487;-78
2021/11/27 03:55:37;;;;;;;6.20;2.83;;;11.00;99.90;;;;;;4995502;28;20475;-78
2021/11/27 03:58:03;;;;;;;5.30;2.40;;;11.00;99.90;;;;;;4995402;28;20038;-79
2021/11/27 04:00:29;;;;;;;10.73;3.25;;;11.00;99.90;;;;;;4978042;28;20041;-78
2021/11/27 04:02:56;;;;;;;12.77;3.17;;;11.00;99.90;;;;;;4994595;28;20037;-78
2021/11/27 04:05:22;;;;;;;9.25;3.40;;;11.00;99.90;;;;;;4994323;28;20097;-78
2021/11/27 04:07:55;;;;;;;7.07;3.17;;;11.00;99.90;;;;;;4995093;28;20050;-79
2021/11/27 04:10:21;;;;;;;7.35;3.30;;;11.00;99.90;;;;;;4995072;28;20101;-78
2021/11/27 04:12:47;;;;;;;5.70;2.83;;;11.10;99.90;;;;;;4976940;28;20391;-79
2021/11/27 04:15:13;;;;;;;10.93;2.90;;;11.10;99.90;;;;;;4994895;28;20041;-78
2021/11/27 04:17:38;;;;;;;8.55;2.80;;;11.10;99.90;;;;;;4984842;28;20073;-79
2021/11/27 04:20:04;;;;;;;10.77;3.03;;;11.00;99.90;;;;;;4975618;28;20031;-79
2021/11/27 04:22:30;;;;;;;7.22;2.17;;;11.10;99.90;;;;;;4975383;28;20126;-78
2021/11/27 04:24:56;;;;;;;14.30;3.25;;;11.10;99.90;;;;;;4975217;28;20046;-78
2021/11/27 04:27:21;;;;;;;8.02;2.83;;;11.10;99.90;;;;;;4975270;28;20388;-79
2021/11/27 04:29:47;;;;;;;13.50;2.92;;;11.10;99.90;;;;;;4975235;28;20039;-78
2021/11/27 04:32:13;;;;;;;9.35;2.88;;;11.10;99.90;;;;;;4975282;28;20031;-78
2021/11/27 04:34:39;;;;;;;12.52;2.63;;;11.10;99.90;;;;;;4961449;28;20169;-78
2021/11/27 04:37:09;;;;;;;11.38;2.40;;;11.20;99.90;;;;;;4994369;28;20060;-79
2021/11/27 04:39:36;;;;;;;4.22;1.95;;;11.20;99.90;;;;;;4994688;28;20022;-80
2021/11/27 04:42:02;;;;;;;6.78;2.25;;;11.30;99.90;;;;;;4994481;28;20177;-79
2021/11/27 04:44:28;;;;;;;10.55;2.55;;;11.30;99.90;;;;;;4994199;28;20106;-79
2021/11/27 04:46:53;;;;;;;9.23;2.60;;;11.30;99.90;;;;;;4976301;28;20077;-78
2021/11/27 04:49:19;;;;;;;11.43;2.45;;;11.30;99.90;;;;;;4993675;28;20038;-78
2021/11/27 04:51:45;;;;;;;11.00;2.15;;;11.40;99.90;;;;;;4994446;28;20038;-79
2021/11/27 04:54:10;;;;;;;6.10;2.63;;;11.40;99.90;;;;;;4994227;28;20069;-79
2021/11/27 04:56:36;;;;;;;13.77;2.67;;;11.40;99.90;;;;;;4993869;28;20054;-78
2021/11/27 04:59:02;;;;;;;6.20;2.20;;;11.40;99.90;;;;;;4994387;28;20383;-79
2021/11/27 05:01:28;;;;;;;8.40;2.20;;;11.50;99.90;;;;;;4994178;28;20090;-79
2021/11/27 05:03:53;;;;;;;8.63;2.67;;;11.40;99.90;;;;;;4993691;28;20057;-77
2021/11/27 05:06:19;;;;;;;6.15;2.40;;;11.40;99.90;;;;;;4993420;28;20360;-79
2021/11/27 05:08:45;;;;;;;11.73;2.97;;;11.40;99.90;;;;;;4993978;28;20042;-79
2021/11/27 05:11:11;;;;;;;17.92;3.63;;;11.40;99.90;;;;;;4994005;28;20027;-79
2021/11/27 05:13:39;;;;;;;8.57;2.38;;;11.40;99.90;;;;;;4994117;28;20038;-78
2021/11/27 05:16:06;;;;;;;6.78;2.17;;;11.40;99.90;;;;;;4993430;28;20084;-79
2021/11/27 05:18:32;;;;;;;10.43;2.58;;;11.40;99.90;;;;;;4994068;28;20442;-79
2021/11/27 05:20:59;;;;;;;11.70;2.83;;;11.30;99.90;;;;;;4993916;28;20092;-79
2021/11/27 05:23:24;;;;;;;13.95;2.47;;;11.30;99.90;;;;;;4993159;28;20038;-79
2021/11/27 05:25:50;;;;;;;13.82;2.10;;;11.30;99.90;;;;;;4992681;28;20034;-78
2021/11/27 05:28:16;;;;;;;11.23;2.60;;;11.30;99.90;;;;;;4993219;28;20047;-80
2021/11/27 05:30:41;;;;;;;16.75;2.47;;;11.20;99.90;;;;;;4975869;28;20550;-79
2021/11/27 05:33:11;;;;;;;11.02;2.42;;;11.20;99.90;;;;;;4993387;28;20113;-79
2021/11/27 05:35:37;;;;;;;10.73;3.17;;;11.10;99.90;;;;;;4993141;28;20053;-79
2021/11/27 05:38:03;;;;;;;9.55;2.67;;;11.10;99.90;;;;;;4993269;28;20483;-79
2021/11/27 05:40:29;;;;;;;10.25;2.55;;;11.10;99.90;;;;;;4993799;28;20057;-76
2021/11/27 05:42:56;;;;;;;11.85;2.75;;;11.00;99.90;;;;;;4993370;28;20426;-76
2021/11/27 05:45:27;;;;;;;15.05;2.78;;;11.10;99.90;;;;;;4993083;28;20041;-79
2021/11/27 05:47:54;;;;;;;11.15;2.55;;;11.10;99.90;;;;;;4992901;28;20377;-78
2021/11/27 05:50:20;;;;;;;27.67;3.35;;;11.10;99.90;;;;;;4973253;28;20026;-78
2021/11/27 05:52:46;;;;;;;15.15;3.25;;;11.00;99.90;;;;;;4988005;28;20467;-79
2021/11/27 05:55:11;;;;;;;11.93;2.50;;;11.00;99.90;;;;;;4993273;28;20057;-79
2021/11/27 05:57:37;;;;;;;17.27;3.17;;;11.00;99.90;;;;;;4992633;28;20553;-78
2021/11/27 06:00:05;;;;;;;17.75;2.45;;;11.00;99.90;;;;;;4992485;28;20034;-78
2021/11/27 06:02:31;;;;;;;11.98;2.40;;;11.00;99.90;;;;;;4992920;28;20030;-79
2021/11/27 06:04:57;;;;;;;10.98;2.70;;;11.00;99.90;;;;;;4992957;28;20030;-78
2021/11/27 06:07:22;;;;;;;10.63;2.65;;;11.00;99.90;;;;;;4992921;28;20499;-79
2021/11/27 06:09:48;;;;;;;7.45;3.00;;;11.00;99.90;;;;;;4992922;28;20471;-79
2021/11/27 06:12:14;;;;;;;19.73;2.22;;;11.00;99.90;;;;;;4992693;28;20475;-79
2021/11/27 06:14:40;;;;;;;13.95;2.90;;;11.00;99.90;;;;;;4992655;28;20034;-79
2021/11/27 06:17:05;;;;;;;10.18;2.90;;;11.00;99.90;;;;;;4975482;28;20034;-78
2021/11/27 06:19:31;;;;;;;16.05;2.63;;;11.00;99.90;;;;;;4993214;28;20036;-79
2021/11/27 06:21:57;;;;;;;19.35;2.65;;;11.10;99.90;;;;;;4992876;28;20070;-79
2021/11/27 06:24:23;;;;;;;8.55;2.08;;;11.10;99.90;;;;;;4992525;28;20538;-79
2021/11/27 06:26:48;;;;;;;12.15;2.70;;;11.20;99.90;;;;;;4992354;28;20045;-78
2021/11/27 06:29:14;;;;;;;17.05;2.60;;;11.20;99.90;;;;;;4992574;28;20109;-79
2021/11/27 06:31:40;;;;;;;12.43;2.30;;;11.30;99.90;;;;;;4992608;28;20027;-78
2021/11/27 06:34:06;;;;;;;12.45;2.22;;;11.30;99.90;;;;;;4992752;28;20042;-79
2021/11/27 06:36:32;;;;;;;16.75;2.38;;;11.30;99.90;;;;;;4992490;28;20042;-79
2021/11/27 06:38:58;;;;;;;10.55;2.40;;;11.30;99.90;;;;;;4975502;28;20038;-79
2021/11/27 06:41:23;;;;;;;8.52;2.15;;;11.30;99.90;;;;;;4992480;28;20034;-79
2021/11/27 06:43:49;;;;;;;15.00;3.90;;;11.30;99.90;;;;;;4992913;28;20035;-79
2021/11/27 06:46:15;;;;;;;9.18;2.17;;;11.30;99.90;;;;;;4992703;28;20027;-79
2021/11/27 06:48:41;;;;;;;9.43;2.40;;;11.30;99.90;;;;;;4992363;28;20395;-79
2021/11/27 06:51:06;;;;;;;7.55;2.40;;;11.40;99.90;;;;;;4992175;28;20034;-78
2021/11/27 06:53:32;;;;;;;12.23;2.45;;;11.50;99.90;;;;;;4992447;28;20041;-79
2021/11/27 06:55:58;;;;;;;15.77;2.53;;;11.50;99.90;;;;;;4992082;28;20033;-79
2021/11/27 06:58:24;;;;;;;10.40;2.20;;;11.50;99.90;;;;;;4992262;28;20023;-79
2021/11/27 07:00:50;;;;;;;11.68;2.55;;;11.50;99.90;;;;;;4992336;28;20035;-79
2021/11/27 07:03:15;;;;;;;13.63;2.28;;;11.60;99.90;;;;;;4992520;28;20030;-79
2021/11/27 07:05:41;;;;;;;7.30;1.80;;;11.70;99.90;;;;;;4992329;28;20041;-79
2021/11/27 07:08:07;;;;;;;5.07;2.10;;;11.80;99.90;;;;;;4991479;28;20121;-79
2021/11/27 07:10:34;;;;;;;15.48;2.00;;;11.90;99.90;;;;;;4991989;28;20138;-79
2021/11/27 07:13:01;;;;;;;9.20;2.50;;;12.00;99.90;;;;;;4994488;28;20069;-79
2021/11/27 07:15:28;;;;;;;10.40;2.17;;;12.20;99.90;;;;;;4996210;28;20475;-79
2021/11/27 07:17:54;;;;;;;10.35;2.28;;;12.40;99.90;;;;;;4995961;28;20125;-79
2021/11/27 07:20:22;;;;;;;16.15;3.58;;;12.70;99.90;;;;;;4996205;28;20106;-78
2021/11/27 07:22:48;;;;;;;16.38;2.17;;;12.80;99.90;;;;;;4978622;28;20483;-81
2021/11/27 07:25:14;;;;;;;13.00;2.13;;;12.90;99.90;;;;;;4996068;28;20037;-80
2021/11/27 07:27:42;;;;;;;11.43;2.53;;;12.90;99.90;;;;;;4995568;28;20054;-80
2021/11/27 07:30:09;;;;;;;15.02;2.75;;;13.00;99.90;;;;;;4995988;28;20430;-81
2021/11/27 07:32:35;;;;;;;8.18;2.60;;;13.40;99.90;;;;;;4995740;28;20026;-81
2021/11/27 07:35:02;;;;;;;16.20;2.42;;;14.00;99.90;;;;;;4995310;28;20023;-81
2021/11/27 07:37:28;;;;;;;12.00;2.60;;;14.50;99.90;;;;;;4995275;28;20057;-81
2021/11/27 07:39:55;;;;;;;13.25;2.80;;;14.80;99.90;;;;;;4995368;28;20031;-80
2021/11/27 07:42:21;;;;;;;12.55;3.30;;;14.90;99.90;;;;;;4995423;28;20022;-81
2021/11/27 07:44:46;;;;;;;21.10;4.28;;;14.50;99.90;;;;;;4994839;28;20275;-82
2021/11/27 07:47:12;;;;;;;16.45;2.60;;;13.90;99.90;;;;;;4994878;28;20041;-83
2021/11/27 07:49:38;;;;;;;11.40;2.15;;;13.40;99.90;;;;;;4994580;28;20103;-81
2021/11/27 07:52:04;;;;;;;13.38;3.53;;;13.10;99.90;;;;;;4977777;28;20034;-81
2021/11/27 07:54:30;;;;;;;10.45;2.75;;;12.80;99.90;;;;;;4996129;28;20034;-81
2021/11/27 07:56:56;;;;;;;10.20;2.42;;;12.60;99.90;;;;;;4977165;28;20150;-81
2021/11/27 07:59:23;;;;;;;12.10;1.98;;;12.50;99.90;;;;;;4995318;28;20057;-81
2021/11/27 08:01:49;;;;;;;7.57;2.17;;;12.50;99.90;;;;;;4995404;28;20061;-80
2021/11/27 08:04:15;;;;;;;22.75;2.95;;;12.40;99.90;;;;;;4995432;28;20066;-82
2021/11/27 08:06:41;;;;;;;8.73;2.25;;;12.30;99.90;;;;;;4995504;28;20041;-81
2021/11/27 08:09:07;;;;;;;10.93;2.45;;;12.30;99.90;;;;;;4995475;28;20085;-81
2021/11/27 08:11:33;;;;;;;19.98;2.45;;;12.20;99.90;;;;;;4994448;28;20030;-80
2021/11/27 08:14:00;;;;;;;14.32;7.93;;;12.10;99.90;;;;;;4994782;28;20041;-81
2021/11/27 08:16:26;;;;;;;19.13;6.97;;;12.10;99.90;;;;;;4995091;28;20487;-80
2021/11/27 08:18:52;;;;;;;10.23;2.20;;;12.00;99.90;;;;;;4977123;28;20077;-80
2021/11/27 08:21:17;;;;;;;13.75;2.17;;;12.00;99.90;;;;;;4994223;28;20051;-81
2021/11/27 08:23:43;;;;;;;9.52;2.50;;;12.10;99.90;;;;;;4994896;28;20062;-81
2021/11/27 08:26:09;;;;;;;20.92;3.33;;;12.20;99.90;;;;;;4994316;28;20029;-78
2021/11/27 08:28:35;;;;;;;16.38;2.78;;;12.20;99.90;;;;;;4994578;28;20046;-79
2021/11/27 08:31:00;;;;;;;13.95;4.05;;;12.20;99.90;;;;;;4995048;28;20030;-79
2021/11/27 08:33:26;;;;;;;14.07;4.15;;;12.20;99.90;;;;;;4994314;28;20452;-79
2021/11/27 08:35:52;;;;;;;15.82;8.25;;;12.10;99.90;;;;;;4994117;28;20026;-78
2021/11/27 08:38:18;;;;;;;19.40;7.10;;;12.00;99.90;;;;;;4994363;28;20113;-79
2021/11/27 08:40:44;;;;;;;12.95;2.88;;;11.90;99.90;;;;;;4994216;28;20026;-79
2021/11/27 08:43:10;;;;;;;11.50;4.45;;;11.80;99.90;;;;;;4993491;28;20038;-79
2021/11/27 08:45:39;;;;;;;22.77;9.48;;;11.90;99.90;;;;;;4996831;28;20121;-79
2021/11/27 08:48:05;;;;;;;9.88;2.60;;;11.80;99.90;;;;;;5002266;28;20050;-80
2021/11/27 08:50:31;;;;;;;22.75;7.88;;;11.90;99.90;;;;;;4993767;28;20432;-80
2021/11/27 08:52:56;;;;;;;13.20;2.80;;;11.80;99.90;;;;;;4993569;28;20124;-80
2021/11/27 08:55:22;;;;;;;19.42;2.78;;;11.90;99.90;;;;;;4993760;28;20057;-83
2021/11/27 08:57:48;;;;;;;15.02;4.43;;;12.00;99.90;;;;;;4992004;28;20475;-83
2021/11/27 09:00:14;;;;;;;26.98;2.97;;;12.00;99.90;;;;;;4993927;28;20033;-77
2021/11/27 09:02:41;;;;;;;11.35;3.25;;;12.10;99.90;;;;;;4993540;28;20034;-83
2021/11/27 09:05:07;;;;;;;13.98;3.00;;;12.10;99.90;;;;;;4993405;28;20364;-83
2021/11/27 09:07:33;;;;;;;17.80;2.95;;;12.20;99.90;;;;;;4993865;28;20042;-82
2021/11/27 09:09:59;;;;;;;27.90;14.82;;;12.30;99.90;;;;;;4994146;28;20029;-84
2021/11/27 09:12:25;;;;;;;9.60;3.47;;;12.20;99.90;;;;;;5001775;28;20387;-84
2021/11/27 09:14:53;;;;;;;23.88;3.92;;;12.30;99.90;;;;;;4975740;28;20034;-80
2021/11/27 09:17:20;;;;;;;11.57;4.07;;;12.30;99.90;;;;;;4973321;28;20530;-81
2021/11/27 09:19:46;;;;;;;13.73;3.75;;;12.30;99.90;;;;;;4993593;28;20039;-79
2021/11/27 09:22:12;;;;;;;16.52;3.35;;;12.40;99.90;;;;;;4976616;28;20041;-85
2021/11/27 09:24:38;;;;;;;17.20;3.45;;;12.50;99.90;;;;;;4993960;28;20455;-84
2021/11/27 09:27:04;;;;;;;16.77;3.33;;;12.70;99.90;;;;;;4993179;28;20034;-86
2021/11/27 09:29:31;;;;;;;24.73;4.95;;;12.60;99.90;;;;;;4993126;28;20097;-80
2021/11/27 09:31:58;;;;;;;16.40;4.43;;;12.70;99.90;;;;;;4993134;28;20101;-81
2021/11/27 09:34:24;;;;;;;13.05;2.85;;;12.70;99.90;;;;;;4992748;28;20042;-81
2021/11/27 09:36:49;;;;;;;25.23;3.33;;;12.80;99.90;;;;;;4989627;28;20038;-79
2021/11/27 09:39:16;;;;;;;11.00;3.20;;;12.80;99.90;;;;;;4993023;28;20035;-81
2021/11/27 09:41:44;;;;;;;14.38;3.90;;;12.70;99.90;;;;;;4987491;28;20030;-81
2021/11/27 09:44:11;;;;;;;9.57;2.42;;;12.60;99.90;;;;;;4992346;28;20038;-80
2021/11/27 09:46:41;;;;;;;10.35;2.60;;;12.70;99.90;;;;;;4991893;28;20026;-80
2021/11/27 09:49:09;;;;;;;16.50;3.22;;;12.70;99.90;;;;;;4987808;28;20379;-80
2021/11/27 09:51:37;;;;;;;12.75;3.45;;;12.70;99.90;;;;;;4986359;28;20390;-80
2021/11/27 09:54:06;;;;;;;16.33;3.05;;;12.70;99.90;;;;;;4995995;28;20049;-81
2021/11/27 09:56:32;;;;;;;11.35;3.70;;;12.80;99.90;;;;;;4992826;28;20035;-81
2021/11/27 09:58:58;;;;;;;15.40;3.47;;;13.00;99.90;;;;;;4974959;28;20126;-82
2021/11/27 10:01:27;;;;;;;15.15;4.15;;;13.10;99.90;;;;;;4992744;28;20395;-80
2021/11/27 10:04:02;;;;;;;15.65;4.25;;;13.40;99.90;;;;;;4993308;28;20117;-82
2021/11/27 10:06:39;;;;;;;18.75;3.97;;;13.60;99.90;;;;;;4987307;28;20030;-82
2021/11/27 10:09:17;;;;;;;11.05;3.60;;;13.90;99.90;;;;;;4986063;28;20057;-80
2021/11/27 10:11:45;;;;;;;10.20;3.10;;;14.10;99.90;;;;;;4989565;28;20027;-81
2021/11/27 10:14:12;;;;;;;10.45;2.58;;;14.40;99.90;;;;;;5006724;28;20096;-82
2021/11/27 10:17:13;;;;;;;10.20;2.72;;;14.70;99.90;;;;;;4995907;28;20062;-86
2021/11/27 10:19:41;;;;;;;13.60;3.25;;;14.90;99.90;;;;;;4986356;28;20122;-80
2021/11/27 10:22:09;;;;;;;20.60;4.13;;;15.00;99.90;;;;;;4993277;28;20462;-85
2021/11/27 10:24:35;;;;;;;20.08;3.55;;;15.50;99.90;;;;;;4990650;28;20498;-81
2021/11/27 10:27:03;;;;;;;8.75;3.17;;;16.10;99.90;;;;;;4987374;28;20043;-82
2021/11/27 10:29:33;;;;;;;10.35;2.72;;;16.40;99.90;;;;;;4989632;28;20030;-80
2021/11/27 10:32:12;;;;;;;14.93;2.55;;;16.60;99.90;;;;;;4986091;28;20026;-78
2021/11/27 10:34:45;;;;;;;9.45;2.78;;;16.90;99.90;;;;;;4993387;28;20026;-77
2021/11/27 10:37:31;;;;;;;12.13;3.50;;;17.50;99.90;;;;;;4992205;28;20562;-82
2021/11/27 10:40:01;;;;;;;18.70;3.25;;;18.00;99.90;;;;;;4992690;28;20117;-81
2021/11/27 10:42:28;;;;;;;18.08;2.85;;;18.70;99.90;;;;;;4989978;28;20026;-85
2021/11/27 10:44:55;;;;;;;22.15;2.90;;;19.80;99.90;;;;;;4990810;28;20030;-81
2021/11/27 10:47:21;;;;;;;13.80;3.10;;;21.00;99.90;;;;;;4992435;28;20796;-83
2021/11/27 10:49:49;;;;;;;17.25;2.85;;;22.20;99.90;;;;;;4997743;28;20042;-81
2021/11/27 10:52:15;;;;;;;12.82;2.65;;;21.90;99.90;;;;;;4978365;28;20117;-80
2021/11/27 10:54:53;;;;;;;15.27;3.03;;;20.50;99.90;;;;;;4991444;28;20060;-79
2021/11/27 10:57:37;;;;;;;10.65;2.28;;;19.00;99.90;;;;;;4991879;28;20026;-81
2021/11/27 11:00:29;;;;;;;18.58;3.42;;;17.70;99.90;;;;;;4981760;28;20138;-74
2021/11/27 11:02:55;;;;;;;;;;;17.30;99.90;;;;;;4979735;28;20117;-88
2021/11/27 11:05:29;;;;;;;14.65;2.70;;;18.00;99.90;;;;;;4989233;28;19909;-89
2021/11/27 11:07:57;;;;;;;18.75;3.17;;;18.20;99.90;;;;;;4984912;28;20046;-88
2021/11/27 11:10:25;;;;;;;11.02;2.45;;;18.10;99.90;;;;;;4995337;28;20052;-81
2021/11/27 11:13:05;;;;;;;11.23;2.50;;;17.90;99.90;;;;;;4995791;28;20109;-81
2021/11/27 11:15:43;;;;;;;19.65;3.45;;;17.40;99.90;;;;;;4994862;28;20121;-80
2021/11/27 11:18:15;;;;;;;11.77;2.40;;;16.90;99.90;;;;;;4976925;28;20085;-80
2021/11/27 11:20:47;;;;;;;15.13;3.30;;;17.20;99.90;;;;;;4991108;28;20695;-77
2021/11/27 11:23:19;;;;;;;;;;;17.20;99.90;;;;;;4979841;28;20030;-81
2021/11/27 11:26:09;;;;;;;24.25;3.85;;;16.80;99.90;;;;;;4990535;28;19917;-80
2021/11/27 11:28:49;;;;;;;14.43;3.50;;;16.30;99.90;;;;;;4977122;28;20042;-77
2021/11/27 11:31:20;;;;;;;24.08;4.00;;;15.90;99.90;;;;;;4994774;28;20514;-77
2021/11/27 11:33:49;;;;;;;22.30;3.40;;;15.50;99.90;;;;;;4977915;28;20577;-80
2021/11/27 11:36:16;;;;;;;17.73;4.18;;;15.20;99.90;;;;;;4994218;28;20034;-80
2021/11/27 11:38:45;;;;;;;24.63;3.85;;;14.90;99.90;;;;;;4995090;28;20033;-77
2021/11/27 11:41:12;;;;;;;16.45;3.50;;;14.70;99.90;;;;;;4991694;28;20034;-81
2021/11/27 11:43:38;;;;;;;14.88;3.08;;;14.60;99.90;;;;;;4995379;28;20106;-84
2021/11/27 11:46:05;;;;;;;16.00;3.08;;;14.40;99.90;;;;;;4995787;28;20117;-80
2021/11/27 11:48:31;;;;;;;6.97;1.92;;;14.00;99.90;;;;;;4995931;28;20051;-83
2021/11/27 11:51:26;;;;;;;22.10;2.72;;;13.60;99.90;;;;;;4993742;28;20042;-87
2021/11/27 11:53:55;;;;;;;20.17;2.85;;;13.30;99.90;;;;;;4978967;28;20069;-79
2021/11/27 11:56:36;;;;;;;12.70;3.17;;;13.10;99.90;;;;;;4996241;28;20573;-82
2021/11/27 11:59:18;;;;;;;10.13;1.83;;;12.70;99.90;;;;;;4993175;28;20023;-81
2021/11/27 12:02:04;;;;;;;;;;;12.60;99.90;;;;;;4994309;28;20058;-82
2021/11/27 12:04:29;;;;;;;8.98;2.08;;;12.60;99.90;;;;;;4997854;28;19912;-84
2021/11/27 12:06:55;;;;;;;17.25;2.25;;;12.60;99.90;;;;;;4996985;28;20042;-85
2021/11/27 12:09:21;;;;;;;14.60;2.83;;;12.60;99.90;;;;;;4996049;28;20085;-81
2021/11/27 12:11:47;;;;;;;16.42;3.85;;;12.60;99.90;;;;;;4995626;28;20514;-87
2021/11/27 12:14:21;;;;;;;36.90;5.50;;;12.60;99.90;;;;;;4995533;28;20097;-83
2021/11/27 12:17:08;;;;;;;27.30;6.57;;;12.50;99.90;;;;;;4994913;28;20054;-85
2021/11/27 12:19:38;;;;;;;29.75;6.65;;;12.40;99.90;;;;;;4977680;28;20507;-82
2021/11/27 12:22:22;;;;;;;46.15;9.05;;;12.20;99.90;;;;;;4995120;28;20053;-86
2021/11/27 12:25:13;;;;;;;55.17;11.98;;;12.00;99.90;;;;;;4995004;28;20023;-85
2021/11/27 12:28:04;;;;;;;32.40;6.53;;;11.80;99.90;;;;;;4989769;28;20047;-86
2021/11/27 12:30:54;;;;;;;44.38;5.75;;;11.70;99.90;;;;;;4994790;28;20043;-83
2021/11/27 12:33:41;;;;;;;20.42;4.45;;;11.70;99.90;;;;;;4994940;28;20026;-80
2021/11/27 12:36:28;;;;;;;19.13;3.95;;;11.80;99.90;;;;;;4994780;28;20132;-87
2021/11/27 12:39:21;;;;;;;12.95;3.33;;;11.80;99.90;;;;;;4987713;28;20041;-78
2021/11/27 12:41:48;;;;;;;25.15;5.43;;;11.80;99.90;;;;;;4994488;28;20380;-77
2021/11/27 12:44:28;;;;;;;22.42;4.40;;;11.90;99.90;;;;;;4994600;28;20034;-85
2021/11/27 12:47:00;;;;;;;16.83;4.70;;;12.00;99.90;;;;;;4993321;28;20037;-85
2021/11/27 12:49:32;;;;;;;16.67;3.63;;;12.20;99.90;;;;;;4975084;28;20043;-85